Morehead City, NC

8:05 AM EST on January 30, 2015 (GMT -0500)
Smith | Change Station
CLOSE
Current Station
Airport
Location: Beaufort,
Elevation: 10 ft
Nearby Weather Stations

Elev 10 ft 34.73 °N, 76.66 °W | Updated 7 minutes ago

Rain
Rain
48 °F
Feels Like 48 °F
N
15
Wind Variable Wind from WNW

Today
High -- | Low -- °F
--% Chance of Precip.
Yesterday
High -- | Low -- °F
Precip. -- in
7:06 AM 5:34 PM
Waxing Gibbous, 82% visible
Pressure 29.97 in
Visibility 10.0 miles
Clouds Mostly Cloudy 8000 ft
Overcast 10000 ft
Dew Point 43 °F
Humidity 83%
Rainfall 0.00 in
Snow Depth Not available.
UV 0 out of 12
Pollen 2.20 out of 12
Air Quality Not available.
Flu Activity Not available.
METAR KMRH 301258Z AUTO 30013KT 10SM -RA BKN080 OVC100 09/06 A2997 RMK AO2 RAB1159 SLP148 P0000 T00890061 TSNO

More Conditions Fewer Conditions

Pressure 29.97 in
Visibility 10.0 miles
Clouds Mostly Cloudy 8000 ft
Overcast 10000 ft
Dew Point 43 °F
Humidity 83%
Rainfall 0.00 in
Snow Depth Not available.
UV 0 out of 12
Pollen 2.20 out of 12
Air Quality Not available.
Flu Activity Not available.
METAR KMRH 301258Z AUTO 30013KT 10SM -RA BKN080 OVC100 09/06 A2997 RMK AO2 RAB1159 SLP148 P0000 T00890061 TSNO

More Conditions Fewer Conditions

10-Day Weather Forecast

Almanac

Astronomy

Jan. 30, 2015 Rise Set
Actual Time
Civil Twilight
Nautical Twilight
Astronomical Twilight
Moon
Length of Visible Light
Length of Day
Tomorrow will be .
, % of the Moon is Illuminated

Today's Extremes

State Highs State Lows

Community

WunderPhotos

Upload Photos

1,791,747 photos uploaded!

WunderBlogs® & News

Nearby

Air Quality

  Air Quality AQ Index Pollutant
Not available.

Snow Depth

Station Depth Elevation

Earthquake Activity

City Distance Mag. Time & Date
Minimum magnitude displayed is 2.5.

Coastal Water Temperatures

Place Temperature

Nearby Weather Stations